Time;durP1;ratioP1;P1;durP2;ratioP2;P2;SDS_P1;SDS_P2;PMS_P1;PMS_P2;Temp;Humidity;BMP_temperature;BMP_pressure;BME280_temperature;BME280_humidity;BME280_pressure;Samples;Min_cycle;Max_cycle;Signal;HPM_P1;HPM_P2
2021/12/29 00:01:59;;;;;;;10.20;1.83;;;;;;;9.16;70.91;97785.94;5213607;28;20163;-69
2021/12/29 00:04:49;;;;;;;14.57;1.92;;;;;;;9.50;70.17;97784.94;5212855;28;20044;-69
2021/12/29 00:07:40;;;;;;;12.93;1.98;;;;;;;9.68;68.89;97776.84;5211486;28;20071;-70
2021/12/29 00:10:31;;;;;;;13.50;2.00;;;;;;;9.82;68.91;97792.84;5203463;28;20041;-69
2021/12/29 00:13:25;;;;;;;11.85;1.90;;;;;;;9.71;68.88;97797.69;5213736;28;20045;-68
2021/12/29 00:16:16;;;;;;;12.65;2.05;;;;;;;10.13;67.90;97797.41;5213711;28;20515;-68
2021/12/29 00:19:06;;;;;;;18.63;2.63;;;;;;;9.98;68.39;97788.50;5197305;28;20053;-69
2021/12/29 00:21:57;;;;;;;17.83;2.40;;;;;;;9.89;68.29;97804.41;5198235;28;20138;-71
2021/12/29 00:24:48;;;;;;;12.52;1.95;;;;;;;9.78;68.25;97804.78;5205312;28;20426;-69
2021/12/29 00:27:38;;;;;;;11.57;1.92;;;;;;;9.62;69.13;97805.59;5216822;28;20138;-70
2021/12/29 00:30:28;;;;;;;9.75;1.92;;;;;;;9.68;68.71;97812.06;5219364;28;20419;-68
2021/12/29 00:33:19;;;;;;;14.32;1.50;;;;;;;9.51;69.39;97813.06;5214629;28;20596;-70
2021/12/29 00:36:28;;;;;;;11.63;1.85;;;;;;;9.75;68.70;97822.81;5219050;28;20056;-68
2021/12/29 00:39:54;;;;;;;8.98;1.50;;;;;;;9.63;68.89;97828.44;5135412;28;20074;-68
2021/12/29 00:42:47;;;;;;;12.43;1.98;;;;;;;9.51;69.17;97829.78;5220081;28;20438;-69
2021/12/29 00:45:56;;;;;;;11.65;2.00;;;;;;;9.97;68.49;97842.47;5221695;28;20041;-70
2021/12/29 00:48:48;;;;;;;11.35;1.58;;;;;;;9.58;69.19;97854.56;5218802;28;20830;-69
2021/12/29 00:51:38;;;;;;;14.60;1.48;;;;;;;9.11;70.56;97846.44;5216970;28;20052;-69
2021/12/29 00:54:28;;;;;;;11.43;1.50;;;;;;;9.14;70.76;97854.88;5204150;28;20083;-71
2021/12/29 00:57:18;;;;;;;11.20;1.65;;;;;;;9.32;70.60;97860.00;5220507;28;20142;-69
2021/12/29 01:00:15;;;;;;;10.07;1.55;;;;;;;9.30;70.60;97864.63;5218441;28;20194;-69
2021/12/29 01:03:05;;;;;;;6.50;1.42;;;;;;;9.46;69.62;97870.94;5216476;28;20104;-69
2021/12/29 01:05:56;;;;;;;12.27;1.55;;;;;;;9.67;70.61;97876.59;5210971;28;20071;-70
2021/12/29 01:08:46;;;;;;;10.10;1.80;;;;;;;9.69;69.37;97893.13;5201524;28;20102;-70
2021/12/29 01:11:36;;;;;;;13.90;1.60;;;;;;;9.86;69.11;97900.06;5216301;28;20048;-68
2021/12/29 01:14:30;;;;;;;9.73;1.40;;;;;;;10.04;68.46;97907.00;5204672;28;20060;-67
2021/12/29 01:17:22;;;;;;;11.87;1.30;;;;;;;9.78;68.71;97912.47;5218304;28;20597;-70
2021/12/29 01:20:12;;;;;;;11.50;1.65;;;;;;;9.65;69.41;97924.38;5217901;28;20182;-70
2021/12/29 01:23:02;;;;;;;12.43;1.65;;;;;;;9.14;71.11;97920.16;5199278;28;20126;-69
2021/12/29 01:25:52;;;;;;;11.10;1.50;;;;;;;9.18;71.26;97916.19;5219267;28;20558;-69
2021/12/29 01:28:43;;;;;;;7.25;1.60;;;;;;;9.24;70.80;97939.38;5219796;28;20057;-69
2021/12/29 01:31:33;;;;;;;7.28;1.70;;;;;;;9.50;69.78;97925.19;5220225;28;20119;-70
2021/12/29 01:34:24;;;;;;;10.60;1.70;;;;;;;9.71;69.28;97943.25;5204513;28;20049;-70
2021/12/29 01:37:14;;;;;;;16.25;2.03;;;;;;;9.68;69.55;97944.41;5217159;28;20625;-70
2021/12/29 01:40:09;;;;;;;7.43;1.58;;;;;;;9.24;70.31;97928.78;5219910;28;20662;-69
2021/12/29 01:42:59;;;;;;;8.73;1.30;;;;;;;9.54;69.62;97940.59;5204330;28;20048;-69
2021/12/29 01:45:49;;;;;;;13.85;1.48;;;;;;;9.11;70.38;97946.94;5220846;28;20442;-70
2021/12/29 01:48:39;;;;;;;8.90;1.42;;;;;;;9.60;68.49;97952.31;5217982;28;20059;-69
2021/12/29 01:51:30;;;;;;;6.45;1.40;;;;;;;9.62;68.35;97966.22;5202398;28;20064;-69
2021/12/29 01:54:23;;;;;;;8.40;1.63;;;;;;;8.86;71.42;97981.19;5216756;28;20095;-69
2021/12/29 01:57:14;;;;;;;10.70;1.60;;;;;;;9.73;68.66;98002.13;5219330;28;20048;-69
2021/12/29 02:00:07;;;;;;;10.63;1.88;;;;;;;9.20;70.70;98001.47;5219911;28;20417;-68
2021/12/29 02:03:01;;;;;;;8.77;1.05;;;;;;;9.17;70.60;98020.31;5220634;28;20501;-70
2021/12/29 02:05:52;;;;;;;5.05;0.82;;;;;;;9.65;68.96;97972.03;5206041;28;20051;-70
2021/12/29 02:08:42;;;;;;;2.20;0.65;;;;;;;9.23;69.61;98008.28;5220766;28;20056;-70
2021/12/29 02:11:37;;;;;;;6.45;1.10;;;;;;;9.22;69.21;98010.09;5220284;28;20471;-69
2021/12/29 02:14:28;;;;;;;11.98;1.58;;;;;;;9.73;68.41;98037.38;5202744;28;20423;-69
2021/12/29 02:17:18;;;;;;;6.65;1.30;;;;;;;9.83;68.37;98031.94;5215392;28;20091;-69
2021/12/29 02:20:11;;;;;;;7.50;0.98;;;;;;;9.43;70.32;98035.31;5202765;28;20158;-69
2021/12/29 02:23:14;;;;;;;7.72;1.25;;;;;;;9.79;68.79;98047.31;5220670;28;20060;-69
2021/12/29 02:26:04;;;;;;;4.72;1.25;;;;;;;8.98;71.26;98063.69;5213794;28;20127;-69
2021/12/29 02:28:55;;;;;;;9.52;1.38;;;;;;;9.39;69.74;98067.38;5219948;28;20064;-69
2021/12/29 02:31:46;;;;;;;6.03;1.23;;;;;;;10.10;67.93;98074.03;5204696;23;20419;-69
2021/12/29 02:34:36;;;;;;;8.77;1.35;;;;;;;9.57;68.77;98069.09;5176392;28;20042;-69
2021/12/29 02:37:27;;;;;;;6.57;1.42;;;;;;;9.33;70.12;98072.47;5178430;28;20042;-69
2021/12/29 02:40:18;;;;;;;9.38;1.23;;;;;;;9.03;71.15;98087.84;5164514;28;20048;-69
2021/12/29 02:43:08;;;;;;;6.40;1.17;;;;;;;9.32;70.11;98087.50;5180617;28;20054;-69
2021/12/29 02:45:59;;;;;;;6.45;1.00;;;;;;;9.45;69.25;98078.31;5179142;28;20038;-69
2021/12/29 02:49:02;;;;;;;3.17;0.70;;;;;;;9.59;68.97;98105.00;5183013;28;20042;-69
2021/12/29 02:51:52;;;;;;;5.78;1.02;;;;;;;9.28;70.74;98101.22;5181740;28;20045;-69
2021/12/29 02:54:42;;;;;;;7.63;1.23;;;;;;;9.46;70.00;98109.06;5167068;28;20052;-69
2021/12/29 02:57:32;;;;;;;8.65;1.10;;;;;;;9.27;70.50;98126.00;5181090;28;20069;-69
2021/12/29 03:00:22;;;;;;;8.40;1.08;;;;;;;9.54;70.22;98122.34;5179081;28;20053;-69
2021/12/29 03:03:14;;;;;;;9.00;1.08;;;;;;;9.81;68.91;98123.94;5181821;28;20046;-69
2021/12/29 03:06:06;;;;;;;6.40;0.85;;;;;;;9.93;68.78;98129.75;5177234;28;20408;-69
2021/12/29 03:08:56;;;;;;;7.22;1.35;;;;;;;9.93;69.34;98149.13;5168002;28;20490;-69
2021/12/29 03:11:48;;;;;;;7.63;1.80;;;;;;;9.54;69.68;98151.47;5177783;28;20136;-69
2021/12/29 03:14:49;;;;;;;7.13;1.00;;;;;;;10.05;68.72;98162.91;5181381;28;20050;-69
2021/12/29 03:17:39;;;;;;;8.75;1.27;;;;;;;9.39;70.37;98167.09;5169475;28;20041;-69
2021/12/29 03:20:30;;;;;;;5.88;0.80;;;;;;;9.19;71.94;98158.53;5174863;28;20049;-69
2021/12/29 03:23:20;;;;;;;2.80;0.82;;;;;;;9.18;71.54;98138.38;5177547;28;20056;-68
2021/12/29 03:26:10;;;;;;;6.00;1.00;;;;;;;9.65;70.77;98146.72;5172111;28;20049;-69
2021/12/29 03:29:00;;;;;;;6.90;1.15;;;;;;;9.69;70.76;98144.56;5182105;28;20077;-69
2021/12/29 03:31:51;;;;;;;3.90;0.70;;;;;;;9.17;71.73;98155.19;5181487;28;20046;-69
2021/12/29 03:34:41;;;;;;;4.65;0.93;;;;;;;9.04;73.36;98147.69;5181079;28;20050;-69
2021/12/29 03:37:31;;;;;;;10.20;1.20;;;;;;;8.97;73.37;98164.31;5180545;28;20172;-69
2021/12/29 03:40:21;;;;;;;6.78;1.13;;;;;;;8.79;73.65;98172.28;5176994;28;20076;-69
2021/12/29 03:43:12;;;;;;;4.93;1.05;;;;;;;8.62;74.62;98158.09;5164870;28;20531;-68
2021/12/29 03:46:04;;;;;;;7.07;0.88;;;;;;;9.16;72.97;98164.13;5173903;28;20634;-68
2021/12/29 03:48:55;;;;;;;7.28;1.20;;;;;;;8.86;73.26;98160.94;5182524;28;20526;-68
2021/12/29 03:51:45;;;;;;;9.77;0.88;;;;;;;9.15;73.48;98155.38;5177858;28;20080;-69
2021/12/29 03:54:36;;;;;;;6.15;1.00;;;;;;;9.89;69.59;98164.50;5181910;28;20200;-69
2021/12/29 03:57:26;;;;;;;4.03;0.90;;;;;;;9.39;71.11;98156.50;5177629;28;20681;-69
2021/12/29 04:00:18;;;;;;;3.45;0.80;;;;;;;10.06;69.12;98164.56;5175624;28;20519;-69
2021/12/29 04:03:08;;;;;;;5.20;0.90;;;;;;;9.79;69.34;98171.75;5161486;28;20133;-69
2021/12/29 04:06:00;;;;;;;3.45;0.75;;;;;;;9.21;71.56;98172.44;5174963;28;20042;-68
2021/12/29 04:08:52;;;;;;;5.82;0.93;;;;;;;9.19;71.95;98163.81;5179041;28;20054;-69
2021/12/29 04:11:42;;;;;;;5.85;0.85;;;;;;;9.93;69.99;98175.59;5174392;28;20069;-69
2021/12/29 04:14:32;;;;;;;5.53;1.20;;;;;;;9.73;70.21;98190.91;5179716;28;20523;-69
2021/12/29 04:17:36;;;;;;;6.03;0.90;;;;;;;9.50;70.07;98187.97;5180107;28;20070;-69
2021/12/29 04:23:38;;;;;;;8.48;0.88;;;;;;;9.59;70.02;98210.84;5178221;28;20047;-69
2021/12/29 04:26:28;;;;;;;4.10;0.98;;;;;;;9.39;70.41;98222.66;5176503;28;20107;-69
2021/12/29 04:29:18;;;;;;;2.80;0.63;;;;;;;10.11;68.44;98225.84;5174916;28;20053;-68
2021/12/29 04:32:08;;;;;;;4.90;0.80;;;;;;;10.64;66.86;98227.34;5180295;28;20168;-68
2021/12/29 04:34:58;;;;;;;3.53;0.77;;;;;;;10.01;67.73;98228.63;5181689;28;20530;-69
2021/12/29 04:37:50;;;;;;;4.03;0.50;;;;;;;9.81;69.19;98229.84;5166427;28;20076;-69
2021/12/29 04:40:40;;;;;;;5.55;0.60;;;;;;;9.92;68.44;98223.44;5162238;28;20099;-69
2021/12/29 04:43:30;;;;;;;1.08;0.50;;;;;;;10.46;67.19;98229.28;5178577;28;20061;-69
2021/12/29 04:46:28;;;;;;;3.60;0.65;;;;;;;9.81;68.08;98237.78;5177916;28;20046;-69
2021/12/29 04:49:23;;;;;;;3.63;0.75;;;;;;;10.03;68.31;98252.28;5175082;28;20128;-69
2021/12/29 04:52:14;;;;;;;3.00;0.47;;;;;;;10.45;66.85;98254.16;5179227;28;20532;-69
2021/12/29 04:55:05;;;;;;;2.33;0.60;;;;;;;10.91;65.01;98238.66;5180943;28;20112;-69
2021/12/29 04:57:58;;;;;;;2.50;0.50;;;;;;;11.26;64.19;98253.44;5178108;28;20073;-69
2021/12/29 05:00:50;;;;;;;2.50;0.55;;;;;;;10.87;65.11;98263.88;5176233;28;20547;-69
2021/12/29 05:03:43;;;;;;;1.58;0.50;;;;;;;10.44;66.31;98252.50;5178464;28;20060;-69
2021/12/29 05:09:57;;;;;;;3.10;0.73;;;;;;;10.25;66.54;98272.91;5150160;28;20103;-69
2021/12/29 05:12:47;;;;;;;1.45;0.30;;;;;;;10.85;65.60;98273.78;5177738;28;20211;-69
2021/12/29 05:15:37;;;;;;;4.22;0.60;;;;;;;10.07;66.85;98256.31;5177231;28;20081;-69
2021/12/29 05:18:30;;;;;;;2.13;0.40;;;;;;;10.03;67.87;98278.78;5164306;28;20124;-69
2021/12/29 05:21:20;;;;;;;2.22;0.45;;;;;;;10.28;67.41;98283.22;5175738;28;20409;-69
2021/12/29 05:24:10;;;;;;;2.38;0.40;;;;;;;9.73;68.27;98272.97;5176426;28;20108;-69
2021/12/29 05:27:02;;;;;;;2.65;0.65;;;;;;;9.82;68.65;98279.97;5177861;28;20056;-69
2021/12/29 05:29:52;;;;;;;2.65;0.40;;;;;;;10.78;66.01;98287.69;5177970;28;20453;-69
2021/12/29 05:32:41;;;;;;;4.53;0.57;;;;;;;10.73;65.48;98291.84;5179044;28;20077;-69
2021/12/29 05:35:32;;;;;;;3.35;0.40;;;;;;;10.79;66.08;98297.34;5180326;28;20057;-69
2021/12/29 05:38:22;;;;;;;1.75;0.43;;;;;;;10.50;67.00;98310.16;5179041;28;20459;-69
2021/12/29 05:41:12;;;;;;;2.42;0.60;;;;;;;10.73;66.27;98313.88;5175983;28;20050;-69
2021/12/29 05:44:03;;;;;;;3.45;0.50;;;;;;;10.74;67.00;98317.38;5181462;28;20066;-69
2021/12/29 05:46:53;;;;;;;1.70;0.55;;;;;;;9.54;70.50;98307.59;5178475;28;20088;-69
2021/12/29 05:49:43;;;;;;;5.07;0.63;;;;;;;9.35;73.38;98325.31;5178246;28;20049;-69
2021/12/29 05:52:32;;;;;;;2.60;0.40;;;;;;;9.76;74.02;98333.56;5178786;28;20119;-69
2021/12/29 05:55:23;;;;;;;4.18;0.77;;;;;;;9.51;74.83;98334.38;5179537;28;20125;-69
2021/12/29 05:58:13;;;;;;;4.85;0.70;;;;;;;9.95;74.36;98347.59;5178869;28;20065;-69
2021/12/29 06:01:04;;;;;;;6.97;1.00;;;;;;;9.96;73.68;98343.94;5175145;28;20046;-69
2021/12/29 06:03:55;;;;;;;3.38;0.82;;;;;;;10.40;73.41;98351.84;5178701;28;20046;-69
2021/12/29 06:06:45;;;;;;;4.88;0.90;;;;;;;10.20;72.41;98322.06;5179019;28;20536;-70
2021/12/29 06:09:35;;;;;;;5.82;1.10;;;;;;;10.60;72.08;98361.22;5177151;28;20053;-69
2021/12/29 06:12:25;;;;;;;6.57;0.95;;;;;;;10.42;72.59;98360.47;5177438;28;20054;-69
2021/12/29 06:15:15;;;;;;;6.70;0.98;;;;;;;10.00;74.89;98366.47;5180338;28;20187;-69
2021/12/29 06:18:05;;;;;;;6.97;1.50;;;;;;;9.71;75.57;98357.03;5180623;28;20049;-69
2021/12/29 06:20:55;;;;;;;6.60;1.23;;;;;;;10.15;74.10;98358.81;5178654;28;20049;-69
2021/12/29 06:23:47;;;;;;;5.63;0.90;;;;;;;10.33;73.79;98351.63;5178634;28;20042;-69
2021/12/29 06:26:37;;;;;;;6.95;1.10;;;;;;;10.15;74.42;98340.25;5179276;28;20065;-69
2021/12/29 06:29:27;;;;;;;10.32;1.55;;;;;;;10.28;73.30;98359.25;5182703;28;20069;-69
2021/12/29 06:32:18;;;;;;;5.18;1.15;;;;;;;10.07;73.39;98336.59;5180247;28;20049;-69
2021/12/29 06:35:09;;;;;;;7.82;1.88;;;;;;;10.05;73.71;98357.09;5179011;28;20050;-69
2021/12/29 06:38:00;;;;;;;7.68;1.40;;;;;;;10.40;73.17;98351.84;5178690;28;20041;-69
2021/12/29 06:40:50;;;;;;;4.40;1.20;;;;;;;10.30;72.87;98365.22;5179059;28;20654;-69
2021/12/29 06:43:40;;;;;;;11.90;1.65;;;;;;;10.03;72.98;98361.72;5176731;28;20131;-69
2021/12/29 06:46:31;;;;;;;7.05;1.38;;;;;;;10.26;72.52;98367.34;5181091;28;20041;-69
2021/12/29 06:49:21;;;;;;;10.05;1.80;;;;;;;9.90;74.04;98350.72;5182785;28;20212;-69
2021/12/29 06:52:12;;;;;;;9.75;1.10;;;;;;;10.23;72.05;98370.28;5181517;28;20116;-69
2021/12/29 06:55:03;;;;;;;3.30;0.90;;;;;;;10.39;72.28;98371.38;5175036;28;20419;-69
2021/12/29 06:57:53;;;;;;;7.15;1.17;;;;;;;10.42;72.28;98382.50;5182805;28;20187;-69
2021/12/29 07:00:43;;;;;;;9.00;1.10;;;;;;;10.16;72.08;98373.69;5181978;28;20084;-69
2021/12/29 07:03:34;;;;;;;5.13;1.17;;;;;;;10.06;71.81;98395.81;5179133;28;20053;-69
2021/12/29 07:06:24;;;;;;;13.73;1.63;;;;;;;10.43;70.42;98397.44;5176816;28;20112;-69
2021/12/29 07:09:15;;;;;;;8.60;1.48;;;;;;;10.04;71.77;98399.63;5178898;28;20042;-69
2021/12/29 07:12:06;;;;;;;12.32;1.70;;;;;;;9.84;71.51;98404.28;5183727;28;20057;-69
2021/12/29 07:14:59;;;;;;;6.22;1.40;;;;;;;10.00;72.81;98414.16;5181686;28;20071;-69
2021/12/29 07:17:49;;;;;;;9.70;1.40;;;;;;;9.94;72.75;98434.16;5182295;28;20424;-69
2021/12/29 07:20:40;;;;;;;7.93;1.52;;;;;;;10.28;72.67;98444.03;5179533;28;20084;-69
2021/12/29 07:23:30;;;;;;;11.15;1.60;;;;;;;9.45;74.84;98440.81;5181675;28;20527;-69
2021/12/29 07:26:24;;;;;;;5.85;1.45;;;;;;;10.11;72.36;98441.25;5176568;28;20083;-69
2021/12/29 07:29:15;;;;;;;8.45;1.30;;;;;;;10.11;71.28;98430.66;5163892;28;20141;-69
2021/12/29 07:32:08;;;;;;;15.13;1.33;;;;;;;9.69;73.78;98449.00;5163078;28;20523;-69
2021/12/29 07:34:58;;;;;;;8.35;2.10;;;;;;;9.92;72.30;98446.72;5179356;28;20056;-69
2021/12/29 07:37:49;;;;;;;13.75;1.80;;;;;;;9.96;72.21;98457.81;5182278;28;20045;-69
2021/12/29 07:40:39;;;;;;;11.90;2.05;;;;;;;9.58;73.14;98457.16;5167091;28;20068;-69
2021/12/29 07:43:29;;;;;;;14.55;2.03;;;;;;;9.94;72.53;98451.88;5182243;28;20497;-69
2021/12/29 07:46:19;;;;;;;10.80;1.55;;;;;;;9.58;73.19;98462.47;5177059;28;20104;-69
2021/12/29 07:49:10;;;;;;;7.00;1.52;;;;;;;9.99;72.00;98481.34;5182019;28;20072;-69
2021/12/29 07:52:00;;;;;;;10.55;1.95;;;;;;;10.12;72.26;98477.31;5174262;28;20521;-69
2021/12/29 07:54:50;;;;;;;7.53;1.77;;;;;;;9.88;71.69;98469.19;5180667;28;20113;-69
2021/12/29 07:57:40;;;;;;;9.32;1.30;;;;;;;9.94;71.01;98470.41;5179211;28;20108;-69
2021/12/29 08:00:31;;;;;;;8.85;1.80;;;;;;;10.32;70.99;98487.78;5176175;28;20057;-69
2021/12/29 08:03:22;;;;;;;7.60;1.55;;;;;;;9.51;73.10;98493.16;5169636;28;20069;-70
2021/12/29 08:06:15;;;;;;;8.88;1.40;;;;;;;10.16;70.39;98488.44;5177154;28;20147;-68
2021/12/29 08:09:12;;;;;;;5.67;0.97;;;;;;;10.49;69.51;98496.66;5172951;28;20081;-72
2021/12/29 08:12:03;;;;;;;10.50;1.88;;;;;;;10.67;69.45;98483.38;5176103;28;20333;-69
2021/12/29 08:14:53;;;;;;;7.10;1.42;;;;;;;10.57;68.90;98491.44;5181272;28;20048;-69
2021/12/29 08:17:44;;;;;;;6.85;1.10;;;;;;;10.57;69.10;98492.28;5180274;28;20045;-69
2021/12/29 08:20:35;;;;;;;4.05;1.10;;;;;;;10.47;68.96;98488.06;5181014;28;20054;-69
2021/12/29 08:23:26;;;;;;;2.30;0.95;;;;;;;10.37;70.13;98496.13;5175894;28;20072;-67
2021/12/29 08:26:18;;;;;;;7.88;1.38;;;;;;;10.51;70.15;98507.97;5179773;28;20638;-69
2021/12/29 08:29:08;;;;;;;7.40;1.10;;;;;;;10.81;68.56;98504.84;5163754;28;20053;-68
2021/12/29 08:31:58;;;;;;;9.80;1.40;;;;;;;10.94;68.48;98506.22;5176311;28;20139;-68
2021/12/29 08:34:48;;;;;;;7.75;1.00;;;;;;;11.05;68.06;98506.78;5183466;28;20407;-68
2021/12/29 08:37:40;;;;;;;3.08;0.80;;;;;;;10.63;69.28;98493.47;5181386;28;20045;-68
2021/12/29 08:40:30;;;;;;;5.43;1.00;;;;;;;10.86;69.06;98469.91;5176337;28;20184;-69
2021/12/29 08:43:20;;;;;;;6.00;1.45;;;;;;;10.84;68.50;98481.66;5165541;28;20111;-68
2021/12/29 08:46:10;;;;;;;7.88;1.23;;;;;;;10.36;69.44;98483.81;5179712;28;20045;-68
2021/12/29 08:49:00;;;;;;;5.13;1.35;;;;;;;10.55;68.82;98488.94;5180349;28;20743;-69
2021/12/29 08:51:50;;;;;;;7.95;1.00;;;;;;;10.94;67.67;98488.50;5167487;28;20124;-68
2021/12/29 08:54:40;;;;;;;5.20;1.13;;;;;;;10.24;69.21;98498.31;5182072;28;20053;-69
2021/12/29 08:57:31;;;;;;;4.63;1.50;;;;;;;10.68;68.38;98495.66;5176272;28;20495;-66
2021/12/29 09:00:22;;;;;;;3.53;0.90;;;;;;;10.46;67.56;98489.03;5180320;28;20053;-68
2021/12/29 09:03:13;;;;;;;4.32;0.82;;;;;;;9.99;69.16;98503.38;5182411;28;20456;-70
2021/12/29 09:06:04;;;;;;;6.82;1.30;;;;;;;11.14;66.17;98498.88;5176740;28;20049;-68
2021/12/29 09:08:54;;;;;;;3.88;1.15;;;;;;;11.07;66.55;98497.84;5177381;28;20123;-67
2021/12/29 09:11:44;;;;;;;7.35;1.23;;;;;;;10.92;67.20;98492.28;5181466;28;20539;-71
2021/12/29 09:14:35;;;;;;;7.80;1.88;;;;;;;10.94;66.17;98493.78;5179245;28;20104;-71
2021/12/29 09:17:25;;;;;;;4.43;1.48;;;;;;;11.21;66.35;98516.63;5179349;28;20081;-70
2021/12/29 09:20:27;;;;;;;10.45;1.33;;;;;;;11.07;66.25;98516.41;5180086;28;20104;-70
2021/12/29 09:23:17;;;;;;;5.03;1.20;;;;;;;11.17;66.06;98531.22;5180628;28;20188;-70
2021/12/29 09:26:12;;;;;;;8.88;1.52;;;;;;;11.30;66.08;98525.47;5177146;28;20568;-68
2021/12/29 09:29:04;;;;;;;5.07;1.30;;;;;;;11.41;65.79;98527.00;5163600;28;20049;-67
2021/12/29 09:31:55;;;;;;;4.10;1.48;;;;;;;11.38;65.31;98516.69;5179239;28;20125;-69
2021/12/29 09:34:45;;;;;;;4.80;1.73;;;;;;;11.24;66.27;98532.25;5179522;28;20056;-66
2021/12/29 09:37:35;;;;;;;6.93;1.63;;;;;;;11.32;64.95;98527.94;5178810;28;20061;-68
2021/12/29 09:40:25;;;;;;;7.68;1.83;;;;;;;11.47;65.23;98550.25;5176996;28;20052;-69
2021/12/29 09:43:17;;;;;;;10.18;2.05;;;;;;;11.44;65.47;98548.75;5171891;28;20100;-69
2021/12/29 09:46:08;;;;;;;4.35;1.23;;;;;;;11.37;65.09;98553.03;5163967;28;20432;-69
2021/12/29 09:49:00;;;;;;;7.78;2.60;;;;;;;11.51;65.32;98555.06;5175278;28;20053;-70
2021/12/29 09:51:51;;;;;;;9.52;1.70;;;;;;;11.72;65.66;98557.31;5181027;28;20128;-70
2021/12/29 09:54:41;;;;;;;5.80;1.50;;;;;;;11.49;65.11;98542.97;5179762;28;20132;-69
2021/12/29 09:57:33;;;;;;;11.75;1.60;;;;;;;11.48;65.99;98550.06;5176265;28;20053;-69
2021/12/29 10:00:33;;;;;;;7.03;1.38;;;;;;;11.69;65.71;98556.81;5181841;28;20415;-69
2021/12/29 10:03:25;;;;;;;5.22;1.27;;;;;;;11.37;65.39;98573.44;5181427;28;20137;-68
2021/12/29 10:06:16;;;;;;;15.07;1.67;;;;;;;10.81;67.91;98568.47;5181407;28;20061;-68
2021/12/29 10:09:12;;;;;;;7.68;1.48;;;;;;;11.24;66.74;98558.78;5180984;28;20536;-68
2021/12/29 10:12:09;;;;;;;6.22;1.65;;;;;;;11.53;65.64;98552.28;5183685;28;20065;-68
2021/12/29 10:15:02;;;;;;;6.65;1.50;;;;;;;11.59;66.01;98556.94;5179023;28;20072;-68
2021/12/29 10:18:07;;;;;;;5.18;1.73;;;;;;;11.78;65.88;98545.19;5180809;28;20721;-68
2021/12/29 10:21:05;;;;;;;12.40;1.67;;;;;;;11.79;65.59;98543.38;5182518;28;20050;-68
2021/12/29 10:23:57;;;;;;;5.80;1.20;;;;;;;11.74;65.40;98538.56;5181176;28;20049;-68
2021/12/29 10:27:02;;;;;;;3.50;1.17;;;;;;;11.84;65.95;98541.06;5178537;28;20127;-68
2021/12/29 10:29:53;;;;;;;8.48;1.70;;;;;;;11.88;64.85;98539.78;5191399;28;20044;-69
2021/12/29 10:32:43;;;;;;;6.95;1.67;;;;;;;11.65;65.99;98523.59;5180798;28;21515;-69
2021/12/29 10:35:35;;;;;;;8.68;1.30;;;;;;;11.75;66.38;98524.28;5181112;28;20046;-69
2021/12/29 10:38:25;;;;;;;11.40;1.83;;;;;;;11.95;65.63;98519.53;5167242;28;20037;-69
2021/12/29 10:41:15;;;;;;;7.13;2.10;;;;;;;11.90;65.41;98521.84;5179544;28;20060;-69
2021/12/29 10:44:06;;;;;;;10.05;2.13;;;;;;;12.09;64.94;98516.22;5180593;28;20132;-69
2021/12/29 10:46:59;;;;;;;6.60;2.15;;;;;;;12.26;64.77;98510.94;5180137;28;20052;-69
2021/12/29 10:49:50;;;;;;;7.05;1.55;;;;;;;12.27;64.67;98518.72;5181375;28;20088;-69
2021/12/29 10:52:46;;;;;;;6.13;1.40;;;;;;;11.91;65.13;98521.69;5178370;28;20068;-69
2021/12/29 10:55:39;;;;;;;10.20;1.73;;;;;;;11.97;65.33;98531.66;5175171;28;20042;-68
2021/12/29 10:58:33;;;;;;;6.50;1.65;;;;;;;12.08;64.16;98533.16;5167048;28;20112;-69
2021/12/29 11:01:23;;;;;;;9.00;2.15;;;;;;;12.20;65.06;98536.34;5181350;28;20128;-69
2021/12/29 11:04:15;;;;;;;7.60;1.90;;;;;;;12.21;65.05;98525.53;5180971;28;20053;-69
2021/12/29 11:07:07;;;;;;;7.25;1.67;;;;;;;12.21;65.65;98525.53;5179591;28;20539;-69
2021/12/29 11:10:09;;;;;;;6.32;2.10;;;;;;;12.20;65.33;98507.91;5180237;28;20076;-69
2021/12/29 11:12:59;;;;;;;10.40;1.80;;;;;;;12.22;65.31;98529.84;5166316;28;20656;-69
2021/12/29 11:15:52;;;;;;;4.47;1.45;;;;;;;12.08;64.18;98506.56;5164088;28;20777;-70
2021/12/29 11:18:47;;;;;;;5.10;1.20;;;;;;;12.24;64.98;98519.03;5183910;28;20046;-71
2021/12/29 11:21:40;;;;;;;5.25;1.10;;;;;;;12.54;63.63;98511.38;5179992;28;20053;-70
2021/12/29 11:24:31;;;;;;;4.10;1.10;;;;;;;12.17;64.96;98496.78;5183303;28;20049;-70
2021/12/29 11:27:21;;;;;;;2.88;1.00;;;;;;;12.25;65.81;98510.09;5178335;28;20068;-69
2021/12/29 11:30:12;;;;;;;4.03;0.90;;;;;;;12.28;63.49;98501.75;5179619;28;20132;-68
2021/12/29 11:33:11;;;;;;;4.32;1.17;;;;;;;12.26;64.90;98505.59;5174746;28;20045;-68
2021/12/29 11:36:03;;;;;;;4.97;0.98;;;;;;;12.11;64.89;98498.28;5173504;28;20180;-70
2021/12/29 11:38:53;;;;;;;3.30;0.90;;;;;;;12.25;65.39;98509.25;5180449;28;20044;-68
2021/12/29 11:41:43;;;;;;;31.52;9.95;;;;;;;12.22;64.87;98511.25;5180931;28;20068;-69
2021/12/29 11:44:34;;;;;;;225.45;65.35;;;;;;;12.13;65.74;98503.44;5184410;28;20072;-74
2021/12/29 11:47:25;;;;;;;10.57;5.60;;;;;;;12.05;65.80;98508.75;5165403;28;20046;-71
2021/12/29 11:50:30;;;;;;;4.68;1.73;;;;;;;12.07;66.24;98506.75;5182686;28;20111;-68
2021/12/29 11:53:48;;;;;;;5.32;1.58;;;;;;;12.16;65.78;98505.78;5176199;28;20050;-69
2021/12/29 11:56:40;;;;;;;7.38;2.70;;;;;;;12.14;65.38;98489.97;5158704;28;20191;-70
2021/12/29 11:59:31;;;;;;;5.13;1.88;;;;;;;12.14;65.39;98505.91;5183337;28;20446;-67
2021/12/29 12:02:26;;;;;;;3.95;1.90;;;;;;;12.22;65.31;98505.13;5185283;28;20409;-68
2021/12/29 12:05:34;;;;;;;4.65;1.70;;;;;;;12.15;65.38;98507.59;5179085;28;20048;-69
2021/12/29 12:08:24;;;;;;;5.10;1.20;;;;;;;12.28;65.00;98499.09;5178405;28;20200;-68
2021/12/29 12:11:35;;;;;;;8.95;1.40;;;;;;;12.72;63.57;98498.75;5181525;28;20604;-68
2021/12/29 12:14:34;;;;;;;5.65;1.40;;;;;;;12.68;63.30;98495.59;5176953;28;20153;-68
2021/12/29 12:17:25;;;;;;;3.08;1.08;;;;;;;12.25;65.25;98501.28;5180601;28;20081;-69
2021/12/29 12:20:15;;;;;;;48.80;19.80;;;;;;;12.27;65.16;98491.31;5164165;28;20447;-66
2021/12/29 12:23:06;;;;;;;10.85;3.95;;;;;;;12.59;64.12;98495.78;5177573;28;20077;-67
2021/12/29 12:26:09;;;;;;;7.93;3.85;;;;;;;12.63;64.13;98497.91;5176044;28;20590;-70
2021/12/29 12:28:59;;;;;;;9.45;2.95;;;;;;;12.04;65.28;98468.06;5166205;28;20492;-66
2021/12/29 12:32:10;;;;;;;10.90;4.72;;;;;;;12.17;66.20;98499.44;5175615;28;20243;-70
2021/12/29 12:35:04;;;;;;;11.63;2.10;;;;;;;12.20;65.48;98497.28;5176040;28;20045;-69
2021/12/29 12:37:54;;;;;;;19.90;10.82;;;;;;;11.99;65.48;98467.75;5179027;28;20452;-69
2021/12/29 12:40:45;;;;;;;8.40;2.08;;;;;;;12.19;65.52;98514.25;5180361;28;20038;-69
2021/12/29 12:44:07;;;;;;;7.32;2.83;;;;;;;12.05;66.65;98522.03;5187333;28;20130;-73
2021/12/29 12:47:08;;;;;;;17.73;4.57;;;;;;;12.12;65.34;98521.22;5177676;28;20045;-70
2021/12/29 12:50:00;;;;;;;8.27;1.52;;;;;;;12.09;65.96;98518.06;5181423;28;20045;-67
2021/12/29 12:52:52;;;;;;;4.63;1.20;;;;;;;12.08;65.95;98527.84;5162664;28;20139;-69
2021/12/29 12:55:54;;;;;;;4.97;1.27;;;;;;;12.20;64.38;98539.00;5161869;28;20129;-68
2021/12/29 12:58:47;;;;;;;3.65;1.70;;;;;;;12.23;64.84;98533.34;5182096;28;20120;-69
2021/12/29 13:01:42;;;;;;;4.57;1.27;;;;;;;12.10;65.44;98493.97;5181742;28;20281;-68
2021/12/29 13:04:34;;;;;;;4.95;1.40;;;;;;;11.96;65.84;98529.16;5188874;28;20060;-72
2021/12/29 13:07:24;;;;;;;5.88;1.40;;;;;;;12.27;65.41;98512.56;5180645;28;20092;-69
2021/12/29 13:10:25;;;;;;;5.28;1.38;;;;;;;12.38;63.80;98504.25;5172766;28;20463;-67
2021/12/29 13:13:21;;;;;;;11.60;1.95;;;;;;;12.46;64.02;98514.91;5175262;28;20155;-69
2021/12/29 13:16:14;;;;;;;10.13;2.08;;;;;;;12.69;63.43;98517.69;5177188;28;20102;-71
2021/12/29 13:19:04;;;;;;;5.32;1.48;;;;;;;12.49;64.23;98522.53;5181103;28;20195;-68
2021/12/29 13:22:02;;;;;;;3.72;1.30;;;;;;;12.59;64.17;98512.56;5176493;28;20123;-69
2021/12/29 13:24:52;;;;;;;5.00;2.88;;;;;;;12.67;63.41;98477.13;5180165;28;20044;-69
2021/12/29 13:27:52;;;;;;;6.72;2.50;;;;;;;12.74;63.74;98487.91;5181329;28;20076;-69
2021/12/29 13:30:55;;;;;;;5.90;2.20;;;;;;;12.61;63.88;98501.75;5176603;28;20156;-69
2021/12/29 13:33:51;;;;;;;9.38;2.25;;;;;;;12.45;64.42;98495.47;5181166;28;20053;-70
2021/12/29 13:36:42;;;;;;;8.48;2.58;;;;;;;12.43;65.16;98507.25;5179044;28;20166;-69
2021/12/29 13:39:33;;;;;;;4.70;1.48;;;;;;;12.50;64.36;98497.59;5178668;28;20041;-70